Aviation Digital Data Service (ADDS)

Output produced by TAFs form (0930 UTC 17 October 2017)
found at http://www.aviationweather.gov/adds/tafs/
 
TAF LFMY 170800Z 1709/1809 20008KT CAVOK 
     TEMPO 1719/1803 3000 BR